METAR AND TAF INFORMATION
METAR FOR RJAW
ADDS - METARS form results

(2052 UTC 21 May 2019)
Data provider http://aviationweather.gov/metar/data/
 
METAR text: RJAW 212014Z 20003KT 5000 BR FEW002 SCT004 24/24 Q1004 RMK 2ST002 3ST004 A2965
Conditions at: RJAW (IWOJIMA (JMSDF) , JP) observed 2014 UTC 21 May 2019
Temperature: 24.0°C (75°F)
Dewpoint: 24.0°C (75°F) [RH = 100%]
Pressure (altimeter): 29.65 inches Hg (1004.0 mb)
Winds: from the SSW (200 degrees) at 3 MPH (3 knots; 1.5 m/s)
Visibility: 3 miles ( 5 km)
Ceiling: at least 12,000 feet AGL
Clouds: few clouds at 200 feet AGL
scattered clouds at 400 feet AGL
Weather: BR  (mist)

METAR text: RJAW 212000Z 22003KT 4900 BR FEW002 SCT004 24/24 Q1003 RMK 2ST002 3ST004 A2964
Conditions at: RJAW (IWOJIMA (JMSDF) , JP) observed 2000 UTC 21 May 2019
Temperature: 24.0°C (75°F)
Dewpoint: 24.0°C (75°F) [RH = 100%]
Pressure (altimeter): 29.62 inches Hg (1003.0 mb)
Winds: from the SW (220 degrees) at 3 MPH (3 knots; 1.5 m/s)
Visibility: 3 miles ( 5 km)
Ceiling: at least 12,000 feet AGL
Clouds: few clouds at 200 feet AGL
scattered clouds at 400 feet AGL
Weather: BR  (mist)

 AIRPORT MAP

 RUNWAY INFORMATION
Runway 07 Runway length 8700 ft Runway width 200 ft
Runway elevation 359 ft Runway displaced threshold 0 ft Runway heading 68
Runway 25 Runway length 8700 ft Runway width 200 ft
Runway elevation 378 ft Runway displaced threshold 0 ft Runway heading 248

 AIRPORT FREQUENCIES
Type A/D Name APP/DEP Frequency 138.3 MHZ
Type GND Name GND Frequency 23.68 MHZ
Type TWR Name TWR Frequency 126.2 MHZ

 AIRPORT NEAR NAVIGATION AIDS
Type TACAN Name Iwo Jima Frequency 109800 KHZ
Type NDB Name Iwo Jima Frequency 360 KHZ



Powered by Virtual Airlines Manager [[v2.6.2]]